sensor_id;sensor_type;location;lat;lon;timestamp;P1;durP1;ratioP1;P2;durP2;ratioP2
52380;SDS011;38310;52.796;6.942;2022-07-17T00:01:03;4.75;;;2.63;;
52380;SDS011;38310;52.796;6.942;2022-07-17T00:03:29;3.92;;;2.63;;
52380;SDS011;38310;52.796;6.942;2022-07-17T00:05:55;4.10;;;2.60;;
52380;SDS011;38310;52.796;6.942;2022-07-17T00:08:21;4.38;;;3.20;;
52380;SDS011;38310;52.796;6.942;2022-07-17T00:10:46;4.57;;;2.83;;
52380;SDS011;38310;52.796;6.942;2022-07-17T00:13:12;5.22;;;2.72;;
52380;SDS011;38310;52.796;6.942;2022-07-17T00:15:38;4.47;;;2.58;;
52380;SDS011;38310;52.796;6.942;2022-07-17T00:18:05;10.88;;;3.45;;
52380;SDS011;38310;52.796;6.942;2022-07-17T00:20:34;7.00;;;2.53;;
52380;SDS011;38310;52.796;6.942;2022-07-17T00:23:00;4.75;;;2.63;;
52380;SDS011;38310;52.796;6.942;2022-07-17T00:25:27;4.75;;;2.83;;
52380;SDS011;38310;52.796;6.942;2022-07-17T00:27:53;13.70;;;2.85;;
52380;SDS011;38310;52.796;6.942;2022-07-17T00:30:18;6.43;;;2.50;;
52380;SDS011;38310;52.796;6.942;2022-07-17T00:32:44;5.63;;;2.47;;
52380;SDS011;38310;52.796;6.942;2022-07-17T00:35:10;5.18;;;2.58;;
52380;SDS011;38310;52.796;6.942;2022-07-17T00:37:47;4.97;;;2.63;;
52380;SDS011;38310;52.796;6.942;2022-07-17T00:40:17;5.63;;;2.75;;
52380;SDS011;38310;52.796;6.942;2022-07-17T00:42:48;5.38;;;2.35;;
52380;SDS011;38310;52.796;6.942;2022-07-17T00:45:14;5.20;;;2.40;;
52380;SDS011;38310;52.796;6.942;2022-07-17T00:47:51;4.45;;;2.50;;
52380;SDS011;38310;52.796;6.942;2022-07-17T00:50:29;5.07;;;2.63;;
52380;SDS011;38310;52.796;6.942;2022-07-17T00:52:58;5.68;;;2.30;;
52380;SDS011;38310;52.796;6.942;2022-07-17T00:55:24;6.63;;;2.88;;
52380;SDS011;38310;52.796;6.942;2022-07-17T00:57:51;4.13;;;2.72;;
52380;SDS011;38310;52.796;6.942;2022-07-17T01:00:19;5.85;;;2.65;;
52380;SDS011;38310;52.796;6.942;2022-07-17T01:02:49;4.72;;;2.65;;
52380;SDS011;38310;52.796;6.942;2022-07-17T01:05:18;4.68;;;2.50;;
52380;SDS011;38310;52.796;6.942;2022-07-17T01:07:45;5.90;;;2.42;;
52380;SDS011;38310;52.796;6.942;2022-07-17T01:10:11;5.97;;;2.75;;
52380;SDS011;38310;52.796;6.942;2022-07-17T01:12:38;3.63;;;2.30;;
52380;SDS011;38310;52.796;6.942;2022-07-17T01:15:06;5.25;;;2.58;;
52380;SDS011;38310;52.796;6.942;2022-07-17T01:17:33;4.57;;;2.80;;
52380;SDS011;38310;52.796;6.942;2022-07-17T01:20:04;4.00;;;2.47;;
52380;SDS011;38310;52.796;6.942;2022-07-17T01:22:31;4.90;;;2.25;;
52380;SDS011;38310;52.796;6.942;2022-07-17T01:24:57;4.88;;;2.58;;
52380;SDS011;38310;52.796;6.942;2022-07-17T01:27:23;6.50;;;2.50;;
52380;SDS011;38310;52.796;6.942;2022-07-17T01:29:49;4.47;;;2.38;;
52380;SDS011;38310;52.796;6.942;2022-07-17T01:32:14;3.05;;;2.42;;
52380;SDS011;38310;52.796;6.942;2022-07-17T01:34:40;4.75;;;2.58;;
52380;SDS011;38310;52.796;6.942;2022-07-17T01:37:08;3.47;;;2.40;;
52380;SDS011;38310;52.796;6.942;2022-07-17T01:39:34;3.28;;;2.30;;
52380;SDS011;38310;52.796;6.942;2022-07-17T01:42:18;7.13;;;2.30;;
52380;SDS011;38310;52.796;6.942;2022-07-17T01:44:44;5.65;;;2.65;;
52380;SDS011;38310;52.796;6.942;2022-07-17T01:47:11;6.45;;;2.70;;
52380;SDS011;38310;52.796;6.942;2022-07-17T01:49:42;4.95;;;2.38;;
52380;SDS011;38310;52.796;6.942;2022-07-17T01:52:12;3.23;;;2.17;;
52380;SDS011;38310;52.796;6.942;2022-07-17T01:54:37;3.55;;;2.30;;
52380;SDS011;38310;52.796;6.942;2022-07-17T01:57:04;4.47;;;2.70;;
52380;SDS011;38310;52.796;6.942;2022-07-17T01:59:30;5.15;;;2.42;;
52380;SDS011;38310;52.796;6.942;2022-07-17T02:01:55;5.13;;;2.50;;
52380;SDS011;38310;52.796;6.942;2022-07-17T02:04:21;5.18;;;2.45;;
52380;SDS011;38310;52.796;6.942;2022-07-17T02:06:47;5.30;;;2.75;;
52380;SDS011;38310;52.796;6.942;2022-07-17T02:09:13;4.85;;;2.63;;
52380;SDS011;38310;52.796;6.942;2022-07-17T02:11:38;3.47;;;2.78;;
52380;SDS011;38310;52.796;6.942;2022-07-17T02:14:04;5.38;;;2.53;;
52380;SDS011;38310;52.796;6.942;2022-07-17T02:16:30;7.63;;;3.35;;
52380;SDS011;38310;52.796;6.942;2022-07-17T02:18:55;6.40;;;2.38;;
52380;SDS011;38310;52.796;6.942;2022-07-17T02:21:21;4.40;;;2.92;;
52380;SDS011;38310;52.796;6.942;2022-07-17T02:23:47;7.50;;;2.78;;
52380;SDS011;38310;52.796;6.942;2022-07-17T02:26:13;4.07;;;2.78;;
52380;SDS011;38310;52.796;6.942;2022-07-17T02:28:38;5.97;;;3.38;;
52380;SDS011;38310;52.796;6.942;2022-07-17T02:31:04;3.97;;;2.67;;
52380;SDS011;38310;52.796;6.942;2022-07-17T02:33:30;5.78;;;3.00;;
52380;SDS011;38310;52.796;6.942;2022-07-17T02:35:56;3.95;;;2.65;;
52380;SDS011;38310;52.796;6.942;2022-07-17T02:38:21;4.90;;;2.58;;
52380;SDS011;38310;52.796;6.942;2022-07-17T02:40:47;5.30;;;2.90;;
52380;SDS011;38310;52.796;6.942;2022-07-17T02:43:13;3.95;;;2.90;;
52380;SDS011;38310;52.796;6.942;2022-07-17T02:45:38;5.28;;;2.80;;
52380;SDS011;38310;52.796;6.942;2022-07-17T02:48:04;4.50;;;2.90;;
52380;SDS011;38310;52.796;6.942;2022-07-17T02:50:30;5.85;;;2.83;;
52380;SDS011;38310;52.796;6.942;2022-07-17T02:52:56;11.27;;;2.78;;
52380;SDS011;38310;52.796;6.942;2022-07-17T02:55:22;6.13;;;2.83;;
52380;SDS011;38310;52.796;6.942;2022-07-17T02:57:48;6.70;;;2.63;;
52380;SDS011;38310;52.796;6.942;2022-07-17T03:00:14;3.75;;;2.50;;
52380;SDS011;38310;52.796;6.942;2022-07-17T03:02:42;7.03;;;2.85;;
52380;SDS011;38310;52.796;6.942;2022-07-17T03:05:08;3.75;;;2.65;;
52380;SDS011;38310;52.796;6.942;2022-07-17T03:07:34;6.03;;;2.72;;
52380;SDS011;38310;52.796;6.942;2022-07-17T03:10:00;5.57;;;3.25;;
52380;SDS011;38310;52.796;6.942;2022-07-17T03:12:26;4.57;;;2.65;;
52380;SDS011;38310;52.796;6.942;2022-07-17T03:14:52;8.00;;;3.22;;
52380;SDS011;38310;52.796;6.942;2022-07-17T03:17:18;5.57;;;3.10;;
52380;SDS011;38310;52.796;6.942;2022-07-17T03:19:44;4.68;;;2.72;;
52380;SDS011;38310;52.796;6.942;2022-07-17T03:22:09;4.38;;;2.90;;
52380;SDS011;38310;52.796;6.942;2022-07-17T03:24:35;6.55;;;2.80;;
52380;SDS011;38310;52.796;6.942;2022-07-17T03:27:01;6.53;;;2.83;;
52380;SDS011;38310;52.796;6.942;2022-07-17T03:29:27;4.70;;;3.00;;
52380;SDS011;38310;52.796;6.942;2022-07-17T03:31:52;14.05;;;3.67;;
52380;SDS011;38310;52.796;6.942;2022-07-17T03:34:18;5.03;;;3.08;;
52380;SDS011;38310;52.796;6.942;2022-07-17T03:36:44;5.43;;;3.33;;
52380;SDS011;38310;52.796;6.942;2022-07-17T03:39:09;7.20;;;2.80;;
52380;SDS011;38310;52.796;6.942;2022-07-17T03:41:35;4.82;;;3.03;;
52380;SDS011;38310;52.796;6.942;2022-07-17T03:44:01;5.15;;;2.95;;
52380;SDS011;38310;52.796;6.942;2022-07-17T03:46:27;7.28;;;3.08;;
52380;SDS011;38310;52.796;6.942;2022-07-17T03:48:53;7.70;;;3.78;;
52380;SDS011;38310;52.796;6.942;2022-07-17T03:51:19;5.93;;;3.00;;
52380;SDS011;38310;52.796;6.942;2022-07-17T03:53:44;4.95;;;3.17;;
52380;SDS011;38310;52.796;6.942;2022-07-17T03:56:10;5.40;;;2.70;;
52380;SDS011;38310;52.796;6.942;2022-07-17T03:58:36;6.53;;;2.78;;
52380;SDS011;38310;52.796;6.942;2022-07-17T04:01:01;4.82;;;3.33;;
52380;SDS011;38310;52.796;6.942;2022-07-17T04:03:27;4.60;;;3.10;;
52380;SDS011;38310;52.796;6.942;2022-07-17T04:05:53;4.93;;;3.13;;
52380;SDS011;38310;52.796;6.942;2022-07-17T04:08:19;6.82;;;3.22;;
52380;SDS011;38310;52.796;6.942;2022-07-17T04:10:45;6.38;;;2.95;;
52380;SDS011;38310;52.796;6.942;2022-07-17T04:13:11;5.63;;;3.03;;
52380;SDS011;38310;52.796;6.942;2022-07-17T04:15:37;4.10;;;2.65;;
52380;SDS011;38310;52.796;6.942;2022-07-17T04:18:18;5.72;;;3.00;;
52380;SDS011;38310;52.796;6.942;2022-07-17T04:20:45;4.45;;;2.40;;
52380;SDS011;38310;52.796;6.942;2022-07-17T04:23:12;7.22;;;2.92;;
52380;SDS011;38310;52.796;6.942;2022-07-17T04:25:38;5.43;;;2.83;;
52380;SDS011;38310;52.796;6.942;2022-07-17T04:28:04;3.53;;;2.55;;
52380;SDS011;38310;52.796;6.942;2022-07-17T04:30:30;3.90;;;2.90;;
52380;SDS011;38310;52.796;6.942;2022-07-17T04:32:56;4.63;;;3.00;;
52380;SDS011;38310;52.796;6.942;2022-07-17T04:35:22;6.20;;;3.35;;
52380;SDS011;38310;52.796;6.942;2022-07-17T04:37:48;4.28;;;2.97;;
52380;SDS011;38310;52.796;6.942;2022-07-17T04:40:13;5.05;;;3.42;;
52380;SDS011;38310;52.796;6.942;2022-07-17T04:42:39;3.85;;;2.60;;
52380;SDS011;38310;52.796;6.942;2022-07-17T04:45:05;8.65;;;3.40;;
52380;SDS011;38310;52.796;6.942;2022-07-17T04:47:31;5.15;;;3.05;;
52380;SDS011;38310;52.796;6.942;2022-07-17T04:49:58;7.90;;;3.78;;
52380;SDS011;38310;52.796;6.942;2022-07-17T04:52:24;7.03;;;3.05;;
52380;SDS011;38310;52.796;6.942;2022-07-17T04:54:49;6.10;;;2.90;;
52380;SDS011;38310;52.796;6.942;2022-07-17T04:57:15;6.25;;;2.83;;
52380;SDS011;38310;52.796;6.942;2022-07-17T04:59:41;6.45;;;2.95;;
52380;SDS011;38310;52.796;6.942;2022-07-17T05:02:06;4.78;;;2.70;;
52380;SDS011;38310;52.796;6.942;2022-07-17T05:04:32;4.53;;;2.90;;
52380;SDS011;38310;52.796;6.942;2022-07-17T05:06:58;5.85;;;2.60;;
52380;SDS011;38310;52.796;6.942;2022-07-17T05:09:24;7.70;;;2.92;;
52380;SDS011;38310;52.796;6.942;2022-07-17T05:11:50;5.32;;;3.00;;
52380;SDS011;38310;52.796;6.942;2022-07-17T05:14:16;4.43;;;2.20;;
52380;SDS011;38310;52.796;6.942;2022-07-17T05:16:41;6.40;;;2.78;;
52380;SDS011;38310;52.796;6.942;2022-07-17T05:19:07;3.65;;;2.60;;
52380;SDS011;38310;52.796;6.942;2022-07-17T05:21:33;6.15;;;2.85;;
52380;SDS011;38310;52.796;6.942;2022-07-17T05:23:58;6.30;;;2.47;;
52380;SDS011;38310;52.796;6.942;2022-07-17T05:26:24;4.72;;;2.40;;
52380;SDS011;38310;52.796;6.942;2022-07-17T05:28:50;4.22;;;2.50;;
52380;SDS011;38310;52.796;6.942;2022-07-17T05:31:16;8.80;;;2.90;;
52380;SDS011;38310;52.796;6.942;2022-07-17T05:33:42;5.22;;;2.72;;
52380;SDS011;38310;52.796;6.942;2022-07-17T05:36:07;8.73;;;3.00;;
52380;SDS011;38310;52.796;6.942;2022-07-17T05:38:33;7.40;;;3.08;;
52380;SDS011;38310;52.796;6.942;2022-07-17T05:40:59;5.93;;;2.75;;
52380;SDS011;38310;52.796;6.942;2022-07-17T05:43:25;8.25;;;2.42;;
52380;SDS011;38310;52.796;6.942;2022-07-17T05:45:55;6.25;;;2.75;;
52380;SDS011;38310;52.796;6.942;2022-07-17T05:48:21;6.28;;;2.60;;
52380;SDS011;38310;52.796;6.942;2022-07-17T05:50:47;5.20;;;2.53;;
52380;SDS011;38310;52.796;6.942;2022-07-17T05:53:12;5.57;;;2.72;;
52380;SDS011;38310;52.796;6.942;2022-07-17T05:55:39;9.23;;;2.50;;
52380;SDS011;38310;52.796;6.942;2022-07-17T05:58:06;6.68;;;2.42;;
52380;SDS011;38310;52.796;6.942;2022-07-17T06:00:32;9.05;;;3.08;;
52380;SDS011;38310;52.796;6.942;2022-07-17T06:02:58;6.80;;;2.72;;
52380;SDS011;38310;52.796;6.942;2022-07-17T06:05:24;7.35;;;2.45;;
52380;SDS011;38310;52.796;6.942;2022-07-17T06:07:51;8.75;;;2.50;;
52380;SDS011;38310;52.796;6.942;2022-07-17T06:10:17;5.32;;;2.42;;
52380;SDS011;38310;52.796;6.942;2022-07-17T06:12:43;13.25;;;3.10;;
52380;SDS011;38310;52.796;6.942;2022-07-17T06:15:09;6.57;;;2.60;;
52380;SDS011;38310;52.796;6.942;2022-07-17T06:17:35;5.95;;;2.30;;
52380;SDS011;38310;52.796;6.942;2022-07-17T06:20:01;6.50;;;2.20;;
52380;SDS011;38310;52.796;6.942;2022-07-17T06:22:27;8.52;;;2.42;;
52380;SDS011;38310;52.796;6.942;2022-07-17T06:24:52;5.95;;;2.22;;
52380;SDS011;38310;52.796;6.942;2022-07-17T06:27:18;3.13;;;2.10;;
52380;SDS011;38310;52.796;6.942;2022-07-17T06:29:44;5.82;;;2.33;;
52380;SDS011;38310;52.796;6.942;2022-07-17T06:32:11;4.38;;;1.75;;
52380;SDS011;38310;52.796;6.942;2022-07-17T06:34:37;5.70;;;2.00;;
52380;SDS011;38310;52.796;6.942;2022-07-17T06:37:03;5.47;;;2.10;;
52380;SDS011;38310;52.796;6.942;2022-07-17T06:39:28;6.22;;;2.35;;
52380;SDS011;38310;52.796;6.942;2022-07-17T06:41:54;7.35;;;1.95;;
52380;SDS011;38310;52.796;6.942;2022-07-17T06:44:20;3.58;;;1.70;;
52380;SDS011;38310;52.796;6.942;2022-07-17T06:46:46;5.60;;;1.98;;
52380;SDS011;38310;52.796;6.942;2022-07-17T06:49:12;9.38;;;1.85;;
52380;SDS011;38310;52.796;6.942;2022-07-17T06:51:37;4.63;;;1.73;;
52380;SDS011;38310;52.796;6.942;2022-07-17T06:54:03;7.15;;;1.90;;
52380;SDS011;38310;52.796;6.942;2022-07-17T06:56:29;5.85;;;1.80;;
52380;SDS011;38310;52.796;6.942;2022-07-17T06:58:55;4.15;;;1.77;;
52380;SDS011;38310;52.796;6.942;2022-07-17T07:01:20;2.47;;;1.50;;
52380;SDS011;38310;52.796;6.942;2022-07-17T07:03:46;6.55;;;2.00;;
52380;SDS011;38310;52.796;6.942;2022-07-17T07:06:13;4.90;;;1.42;;
52380;SDS011;38310;52.796;6.942;2022-07-17T07:08:38;9.45;;;2.13;;
52380;SDS011;38310;52.796;6.942;2022-07-17T07:11:04;4.95;;;1.50;;
52380;SDS011;38310;52.796;6.942;2022-07-17T07:13:30;5.00;;;1.90;;
52380;SDS011;38310;52.796;6.942;2022-07-17T07:15:56;4.22;;;1.55;;
52380;SDS011;38310;52.796;6.942;2022-07-17T07:18:21;6.18;;;1.88;;
52380;SDS011;38310;52.796;6.942;2022-07-17T07:20:48;4.82;;;1.60;;
52380;SDS011;38310;52.796;6.942;2022-07-17T07:23:14;6.63;;;1.52;;
52380;SDS011;38310;52.796;6.942;2022-07-17T07:25:40;6.20;;;1.60;;
52380;SDS011;38310;52.796;6.942;2022-07-17T07:28:05;4.53;;;1.40;;
52380;SDS011;38310;52.796;6.942;2022-07-17T07:30:31;3.17;;;1.50;;
52380;SDS011;38310;52.796;6.942;2022-07-17T07:32:57;4.95;;;1.77;;
52380;SDS011;38310;52.796;6.942;2022-07-17T07:35:23;3.10;;;1.45;;
52380;SDS011;38310;52.796;6.942;2022-07-17T07:37:49;6.03;;;1.85;;
52380;SDS011;38310;52.796;6.942;2022-07-17T07:40:15;7.10;;;2.08;;
52380;SDS011;38310;52.796;6.942;2022-07-17T07:42:40;5.75;;;1.83;;
52380;SDS011;38310;52.796;6.942;2022-07-17T07:45:07;5.78;;;1.23;;
52380;SDS011;38310;52.796;6.942;2022-07-17T07:47:39;6.68;;;1.30;;
52380;SDS011;38310;52.796;6.942;2022-07-17T07:50:09;4.88;;;1.60;;
52380;SDS011;38310;52.796;6.942;2022-07-17T07:52:36;6.75;;;2.05;;
52380;SDS011;38310;52.796;6.942;2022-07-17T07:55:03;3.97;;;1.45;;
52380;SDS011;38310;52.796;6.942;2022-07-17T07:57:29;5.07;;;1.52;;
52380;SDS011;38310;52.796;6.942;2022-07-17T07:59:55;4.32;;;1.55;;
52380;SDS011;38310;52.796;6.942;2022-07-17T08:02:21;4.80;;;1.30;;
52380;SDS011;38310;52.796;6.942;2022-07-17T08:04:47;4.40;;;1.65;;
52380;SDS011;38310;52.796;6.942;2022-07-17T08:07:13;4.20;;;1.20;;
52380;SDS011;38310;52.796;6.942;2022-07-17T08:09:38;8.20;;;2.08;;
52380;SDS011;38310;52.796;6.942;2022-07-17T08:12:04;5.30;;;1.33;;
52380;SDS011;38310;52.796;6.942;2022-07-17T08:14:30;4.03;;;1.23;;
52380;SDS011;38310;52.796;6.942;2022-07-17T08:16:56;3.45;;;1.13;;
52380;SDS011;38310;52.796;6.942;2022-07-17T08:19:21;7.55;;;1.85;;
52380;SDS011;38310;52.796;6.942;2022-07-17T08:21:47;5.95;;;1.45;;
52380;SDS011;38310;52.796;6.942;2022-07-17T08:24:13;7.95;;;1.42;;
52380;SDS011;38310;52.796;6.942;2022-07-17T08:26:39;3.40;;;1.10;;
52380;SDS011;38310;52.796;6.942;2022-07-17T08:29:04;4.47;;;1.30;;
52380;SDS011;38310;52.796;6.942;2022-07-17T08:31:30;3.15;;;1.10;;
52380;SDS011;38310;52.796;6.942;2022-07-17T08:33:56;3.08;;;0.95;;
52380;SDS011;38310;52.796;6.942;2022-07-17T08:36:21;3.78;;;1.10;;
52380;SDS011;38310;52.796;6.942;2022-07-17T08:38:47;2.40;;;1.10;;
52380;SDS011;38310;52.796;6.942;2022-07-17T08:41:16;2.85;;;1.13;;
52380;SDS011;38310;52.796;6.942;2022-07-17T08:43:46;7.22;;;1.42;;
52380;SDS011;38310;52.796;6.942;2022-07-17T08:46:13;4.15;;;1.20;;
52380;SDS011;38310;52.796;6.942;2022-07-17T08:48:41;3.63;;;1.00;;
52380;SDS011;38310;52.796;6.942;2022-07-17T08:51:10;3.90;;;1.30;;
52380;SDS011;38310;52.796;6.942;2022-07-17T08:53:36;3.28;;;0.90;;
52380;SDS011;38310;52.796;6.942;2022-07-17T08:56:02;6.32;;;1.10;;
52380;SDS011;38310;52.796;6.942;2022-07-17T08:58:28;3.60;;;1.17;;
52380;SDS011;38310;52.796;6.942;2022-07-17T09:00:55;4.22;;;1.10;;
52380;SDS011;38310;52.796;6.942;2022-07-17T09:03:20;3.78;;;1.08;;
52380;SDS011;38310;52.796;6.942;2022-07-17T09:05:48;5.03;;;1.20;;
52380;SDS011;38310;52.796;6.942;2022-07-17T09:08:19;5.65;;;1.10;;
52380;SDS011;38310;52.796;6.942;2022-07-17T09:10:47;5.32;;;1.38;;
52380;SDS011;38310;52.796;6.942;2022-07-17T09:15:45;4.72;;;1.10;;
52380;SDS011;38310;52.796;6.942;2022-07-17T09:18:12;4.18;;;1.20;;
52380;SDS011;38310;52.796;6.942;2022-07-17T09:20:43;4.57;;;1.35;;
52380;SDS011;38310;52.796;6.942;2022-07-17T09:23:13;3.45;;;1.20;;
52380;SDS011;38310;52.796;6.942;2022-07-17T09:25:40;2.88;;;1.15;;
52380;SDS011;38310;52.796;6.942;2022-07-17T09:28:12;8.25;;;1.05;;
52380;SDS011;38310;52.796;6.942;2022-07-17T09:30:49;4.97;;;1.25;;
52380;SDS011;38310;52.796;6.942;2022-07-17T09:33:18;3.03;;;1.00;;
52380;SDS011;38310;52.796;6.942;2022-07-17T09:35:56;3.70;;;0.85;;
52380;SDS011;38310;52.796;6.942;2022-07-17T09:38:41;4.45;;;1.35;;
52380;SDS011;38310;52.796;6.942;2022-07-17T09:43:37;4.63;;;1.25;;
52380;SDS011;38310;52.796;6.942;2022-07-17T09:48:36;3.42;;;1.23;;
52380;SDS011;38310;52.796;6.942;2022-07-17T09:51:12;4.22;;;1.10;;
52380;SDS011;38310;52.796;6.942;2022-07-17T09:53:40;3.67;;;1.10;;
52380;SDS011;38310;52.796;6.942;2022-07-17T09:56:09;4.68;;;1.00;;
52380;SDS011;38310;52.796;6.942;2022-07-17T09:58:36;1.90;;;0.90;;
52380;SDS011;38310;52.796;6.942;2022-07-17T10:01:08;3.83;;;1.25;;
52380;SDS011;38310;52.796;6.942;2022-07-17T10:03:34;6.55;;;1.13;;
52380;SDS011;38310;52.796;6.942;2022-07-17T10:06:01;5.15;;;1.08;;
52380;SDS011;38310;52.796;6.942;2022-07-17T10:08:27;4.15;;;1.15;;
52380;SDS011;38310;52.796;6.942;2022-07-17T10:10:54;3.40;;;1.02;;
52380;SDS011;38310;52.796;6.942;2022-07-17T10:13:20;5.47;;;1.45;;
52380;SDS011;38310;52.796;6.942;2022-07-17T10:15:46;2.05;;;1.10;;
52380;SDS011;38310;52.796;6.942;2022-07-17T10:18:12;3.08;;;0.90;;
52380;SDS011;38310;52.796;6.942;2022-07-17T10:20:37;3.55;;;1.00;;
52380;SDS011;38310;52.796;6.942;2022-07-17T10:23:13;2.25;;;0.73;;
52380;SDS011;38310;52.796;6.942;2022-07-17T10:25:39;3.42;;;1.00;;
52380;SDS011;38310;52.796;6.942;2022-07-17T10:28:05;3.85;;;0.80;;
52380;SDS011;38310;52.796;6.942;2022-07-17T10:30:32;4.63;;;0.80;;
52380;SDS011;38310;52.796;6.942;2022-07-17T10:33:00;6.05;;;0.85;;
52380;SDS011;38310;52.796;6.942;2022-07-17T10:35:40;2.08;;;0.82;;
52380;SDS011;38310;52.796;6.942;2022-07-17T10:38:12;2.20;;;0.70;;
52380;SDS011;38310;52.796;6.942;2022-07-17T10:40:40;5.18;;;1.20;;
52380;SDS011;38310;52.796;6.942;2022-07-17T10:43:07;4.47;;;1.00;;
52380;SDS011;38310;52.796;6.942;2022-07-17T10:45:41;3.30;;;0.70;;
52380;SDS011;38310;52.796;6.942;2022-07-17T10:48:11;5.60;;;1.15;;
52380;SDS011;38310;52.796;6.942;2022-07-17T10:50:39;4.70;;;0.70;;
52380;SDS011;38310;52.796;6.942;2022-07-17T10:53:10;4.70;;;1.00;;
52380;SDS011;38310;52.796;6.942;2022-07-17T10:55:46;3.85;;;1.08;;
52380;SDS011;38310;52.796;6.942;2022-07-17T11:03:31;4.45;;;1.00;;
52380;SDS011;38310;52.796;6.942;2022-07-17T11:08:47;3.72;;;1.08;;
52380;SDS011;38310;52.796;6.942;2022-07-17T11:11:14;3.45;;;1.00;;
52380;SDS011;38310;52.796;6.942;2022-07-17T11:13:43;3.55;;;0.80;;
52380;SDS011;38310;52.796;6.942;2022-07-17T11:16:09;3.85;;;1.10;;
52380;SDS011;38310;52.796;6.942;2022-07-17T11:18:35;3.72;;;0.90;;
52380;SDS011;38310;52.796;6.942;2022-07-17T11:21:02;2.30;;;0.98;;
52380;SDS011;38310;52.796;6.942;2022-07-17T11:23:30;4.72;;;1.00;;
52380;SDS011;38310;52.796;6.942;2022-07-17T11:30:59;4.57;;;1.10;;
52380;SDS011;38310;52.796;6.942;2022-07-17T11:33:26;2.95;;;0.93;;
52380;SDS011;38310;52.796;6.942;2022-07-17T11:35:52;3.42;;;0.90;;
52380;SDS011;38310;52.796;6.942;2022-07-17T11:38:26;4.85;;;1.20;;
52380;SDS011;38310;52.796;6.942;2022-07-17T11:40:54;3.17;;;1.10;;
52380;SDS011;38310;52.796;6.942;2022-07-17T11:43:20;5.07;;;0.70;;
52380;SDS011;38310;52.796;6.942;2022-07-17T11:45:46;2.83;;;0.90;;
52380;SDS011;38310;52.796;6.942;2022-07-17T11:48:12;4.78;;;0.90;;
52380;SDS011;38310;52.796;6.942;2022-07-17T11:50:38;2.03;;;0.90;;
52380;SDS011;38310;52.796;6.942;2022-07-17T11:53:04;3.25;;;1.05;;
52380;SDS011;38310;52.796;6.942;2022-07-17T11:55:41;3.13;;;1.00;;
52380;SDS011;38310;52.796;6.942;2022-07-17T11:58:07;8.25;;;1.40;;
52380;SDS011;38310;52.796;6.942;2022-07-17T12:00:33;4.63;;;1.20;;
52380;SDS011;38310;52.796;6.942;2022-07-17T12:03:00;3.47;;;0.90;;
52380;SDS011;38310;52.796;6.942;2022-07-17T12:05:32;4.60;;;1.20;;
52380;SDS011;38310;52.796;6.942;2022-07-17T12:07:59;3.60;;;1.17;;
52380;SDS011;38310;52.796;6.942;2022-07-17T12:10:27;4.10;;;1.05;;
52380;SDS011;38310;52.796;6.942;2022-07-17T12:12:56;3.53;;;0.93;;
52380;SDS011;38310;52.796;6.942;2022-07-17T12:18:02;2.38;;;0.90;;
52380;SDS011;38310;52.796;6.942;2022-07-17T12:20:40;5.43;;;0.90;;
52380;SDS011;38310;52.796;6.942;2022-07-17T12:23:25;4.07;;;1.10;;
52380;SDS011;38310;52.796;6.942;2022-07-17T12:26:10;6.32;;;1.25;;
52380;SDS011;38310;52.796;6.942;2022-07-17T12:28:42;4.85;;;1.15;;
52380;SDS011;38310;52.796;6.942;2022-07-17T12:31:08;5.32;;;1.10;;
52380;SDS011;38310;52.796;6.942;2022-07-17T12:33:35;3.22;;;1.08;;
52380;SDS011;38310;52.796;6.942;2022-07-17T12:36:01;4.63;;;1.20;;
52380;SDS011;38310;52.796;6.942;2022-07-17T12:38:27;3.72;;;1.10;;
52380;SDS011;38310;52.796;6.942;2022-07-17T12:40:53;2.50;;;1.33;;
52380;SDS011;38310;52.796;6.942;2022-07-17T12:43:19;2.83;;;1.13;;
52380;SDS011;38310;52.796;6.942;2022-07-17T12:45:44;3.60;;;1.05;;
52380;SDS011;38310;52.796;6.942;2022-07-17T12:48:10;3.15;;;1.00;;
52380;SDS011;38310;52.796;6.942;2022-07-17T12:50:37;2.30;;;0.95;;
52380;SDS011;38310;52.796;6.942;2022-07-17T12:53:03;3.28;;;0.90;;
52380;SDS011;38310;52.796;6.942;2022-07-17T12:55:28;3.60;;;1.05;;
52380;SDS011;38310;52.796;6.942;2022-07-17T12:57:54;4.72;;;1.33;;
52380;SDS011;38310;52.796;6.942;2022-07-17T13:00:20;2.33;;;0.90;;
52380;SDS011;38310;52.796;6.942;2022-07-17T13:02:45;3.38;;;1.20;;
52380;SDS011;38310;52.796;6.942;2022-07-17T13:05:11;2.42;;;1.10;;
52380;SDS011;38310;52.796;6.942;2022-07-17T13:07:37;3.45;;;1.08;;
52380;SDS011;38310;52.796;6.942;2022-07-17T13:10:03;2.40;;;1.10;;
52380;SDS011;38310;52.796;6.942;2022-07-17T13:12:30;3.35;;;1.23;;
52380;SDS011;38310;52.796;6.942;2022-07-17T13:14:56;3.15;;;1.25;;
52380;SDS011;38310;52.796;6.942;2022-07-17T13:17:21;3.55;;;1.13;;
52380;SDS011;38310;52.796;6.942;2022-07-17T13:19:47;3.58;;;1.20;;
52380;SDS011;38310;52.796;6.942;2022-07-17T13:22:13;3.38;;;1.15;;
52380;SDS011;38310;52.796;6.942;2022-07-17T13:24:39;3.25;;;1.38;;
52380;SDS011;38310;52.796;6.942;2022-07-17T13:27:05;4.45;;;1.13;;
52380;SDS011;38310;52.796;6.942;2022-07-17T13:29:31;4.38;;;1.33;;
52380;SDS011;38310;52.796;6.942;2022-07-17T13:31:57;4.57;;;1.30;;
52380;SDS011;38310;52.796;6.942;2022-07-17T13:34:23;4.88;;;1.30;;
52380;SDS011;38310;52.796;6.942;2022-07-17T13:36:48;3.67;;;1.10;;
52380;SDS011;38310;52.796;6.942;2022-07-17T13:39:15;6.65;;;1.25;;
52380;SDS011;38310;52.796;6.942;2022-07-17T13:41:41;3.72;;;1.10;;
52380;SDS011;38310;52.796;6.942;2022-07-17T13:44:07;3.17;;;1.20;;
52380;SDS011;38310;52.796;6.942;2022-07-17T13:46:34;5.88;;;1.60;;
52380;SDS011;38310;52.796;6.942;2022-07-17T13:49:00;3.42;;;1.20;;
52380;SDS011;38310;52.796;6.942;2022-07-17T13:51:26;4.95;;;1.30;;
52380;SDS011;38310;52.796;6.942;2022-07-17T13:53:52;5.95;;;1.45;;
52380;SDS011;38310;52.796;6.942;2022-07-17T13:56:19;3.58;;;1.27;;
52380;SDS011;38310;52.796;6.942;2022-07-17T13:58:46;3.58;;;1.52;;
52380;SDS011;38310;52.796;6.942;2022-07-17T14:01:12;3.55;;;1.30;;
52380;SDS011;38310;52.796;6.942;2022-07-17T14:03:38;4.85;;;1.38;;
52380;SDS011;38310;52.796;6.942;2022-07-17T14:06:04;5.35;;;1.27;;
52380;SDS011;38310;52.796;6.942;2022-07-17T14:08:30;2.42;;;1.25;;
52380;SDS011;38310;52.796;6.942;2022-07-17T14:10:58;3.20;;;1.23;;
52380;SDS011;38310;52.796;6.942;2022-07-17T14:13:24;5.38;;;1.50;;
52380;SDS011;38310;52.796;6.942;2022-07-17T14:15:50;5.20;;;1.65;;
52380;SDS011;38310;52.796;6.942;2022-07-17T14:18:15;3.38;;;1.38;;
52380;SDS011;38310;52.796;6.942;2022-07-17T14:20:42;5.28;;;1.38;;
52380;SDS011;38310;52.796;6.942;2022-07-17T14:23:07;3.20;;;1.30;;
52380;SDS011;38310;52.796;6.942;2022-07-17T14:25:33;5.30;;;1.35;;
52380;SDS011;38310;52.796;6.942;2022-07-17T14:27:59;3.35;;;1.30;;
52380;SDS011;38310;52.796;6.942;2022-07-17T14:30:25;4.22;;;1.40;;
52380;SDS011;38310;52.796;6.942;2022-07-17T14:32:51;2.33;;;1.30;;
52380;SDS011;38310;52.796;6.942;2022-07-17T14:35:17;2.70;;;1.40;;
52380;SDS011;38310;52.796;6.942;2022-07-17T14:37:43;4.03;;;1.67;;
52380;SDS011;38310;52.796;6.942;2022-07-17T14:40:09;5.22;;;1.75;;
52380;SDS011;38310;52.796;6.942;2022-07-17T14:42:38;3.70;;;1.60;;
52380;SDS011;38310;52.796;6.942;2022-07-17T14:45:05;4.93;;;1.98;;
52380;SDS011;38310;52.796;6.942;2022-07-17T14:47:31;5.05;;;1.98;;
52380;SDS011;38310;52.796;6.942;2022-07-17T14:49:57;5.78;;;2.10;;
52380;SDS011;38310;52.796;6.942;2022-07-17T14:52:23;6.90;;;2.38;;
52380;SDS011;38310;52.796;6.942;2022-07-17T14:54:48;4.35;;;1.80;;
52380;SDS011;38310;52.796;6.942;2022-07-17T14:57:14;3.92;;;2.00;;
52380;SDS011;38310;52.796;6.942;2022-07-17T14:59:40;2.92;;;1.83;;
52380;SDS011;38310;52.796;6.942;2022-07-17T15:02:06;5.88;;;2.03;;
52380;SDS011;38310;52.796;6.942;2022-07-17T15:04:31;5.90;;;2.05;;
52380;SDS011;38310;52.796;6.942;2022-07-17T15:06:59;4.47;;;1.95;;
52380;SDS011;38310;52.796;6.942;2022-07-17T15:09:25;4.03;;;2.00;;